createdAt,value
2019-04-10T00:00:02.366Z,1005.65
2019-04-10T00:01:01.445Z,1005.72
2019-04-10T00:02:01.513Z,1005.72
2019-04-10T00:03:02.092Z,1005.72
2019-04-10T00:04:01.012Z,1005.71
2019-04-10T00:05:01.282Z,1005.66
2019-04-10T00:06:01.004Z,1005.64
2019-04-10T00:07:10.575Z,1005.63
2019-04-10T00:08:01.974Z,1005.67
2019-04-10T00:09:01.002Z,1005.64
2019-04-10T00:10:00.972Z,1005.70
2019-04-10T00:11:00.944Z,1005.66
2019-04-10T00:12:01.014Z,1005.62
2019-04-10T00:13:00.918Z,1005.67
2019-04-10T00:14:00.941Z,1005.67
2019-04-10T00:15:00.961Z,1005.62
2019-04-10T00:16:00.894Z,1005.62
2019-04-10T00:17:00.890Z,1005.67
2019-04-10T00:18:01.884Z,1005.64
2019-04-10T00:19:00.854Z,1005.66
2019-04-10T00:20:00.889Z,1005.62
2019-04-10T00:21:00.916Z,1005.66
2019-04-10T00:22:02.692Z,1005.65
2019-04-10T00:23:00.805Z,1005.66
2019-04-10T00:24:01.890Z,1005.60
2019-04-10T00:25:00.790Z,1005.65
2019-04-10T00:26:01.467Z,1005.65
2019-04-10T00:27:01.817Z,1005.68
2019-04-10T00:28:01.188Z,1005.71
2019-04-10T00:29:01.740Z,1005.70
2019-04-10T00:30:00.722Z,1005.75
2019-04-10T00:31:01.840Z,1005.68
2019-04-10T00:32:02.181Z,1005.69
2019-04-10T00:33:00.693Z,1005.70
2019-04-10T00:34:01.042Z,1005.69
2019-04-10T00:35:00.659Z,1005.72
2019-04-10T00:36:01.611Z,1005.69
2019-04-10T00:37:01.678Z,1005.70
2019-04-10T00:38:01.638Z,1005.69
2019-04-10T00:39:00.622Z,1005.71
2019-04-10T00:40:01.220Z,1005.71
2019-04-10T00:41:00.698Z,1005.71
2019-04-10T00:42:00.913Z,1005.70
2019-04-10T00:43:00.578Z,1005.69
2019-04-10T00:44:01.466Z,1005.75
2019-04-10T00:45:00.561Z,1005.74
2019-04-10T00:46:00.548Z,1005.74
2019-04-10T00:47:00.554Z,1005.74
2019-04-10T00:48:01.602Z,1005.79
2019-04-10T00:49:00.661Z,1005.77
2019-04-10T00:50:00.519Z,1005.76
2019-04-10T00:51:01.267Z,1005.81
2019-04-10T00:52:00.463Z,1005.75
2019-04-10T00:53:00.913Z,1005.78
2019-04-10T00:54:01.448Z,1005.79
2019-04-10T00:55:01.459Z,1005.82
2019-04-10T00:56:00.412Z,1005.79
2019-04-10T00:57:01.044Z,1005.82
2019-04-10T00:58:01.518Z,1005.75
2019-04-10T00:59:00.377Z,1005.79
2019-04-10T01:00:00.911Z,1005.79
2019-04-10T01:01:00.369Z,1005.81
2019-04-10T01:02:00.428Z,1005.78
2019-04-10T01:03:00.887Z,1005.74
2019-04-10T01:04:00.340Z,1005.77
2019-04-10T01:05:00.523Z,1005.74
2019-04-10T01:06:00.317Z,1005.76
2019-04-10T01:07:00.330Z,1005.76
2019-04-10T01:08:00.279Z,1005.71
2019-04-10T01:09:01.173Z,1005.70
2019-04-10T01:10:00.251Z,1005.66
2019-04-10T01:11:01.047Z,1005.69
2019-04-10T01:12:00.411Z,1005.62
2019-04-10T01:13:00.674Z,1005.68
2019-04-10T01:14:01.159Z,1005.62
2019-04-10T01:15:00.315Z,1005.67
2019-04-10T01:16:00.716Z,1005.65
2019-04-10T01:17:00.170Z,1005.65
2019-04-10T01:18:00.156Z,1005.65
2019-04-10T01:19:00.186Z,1005.64
2019-04-10T01:20:00.647Z,1005.67
2019-04-10T01:21:00.137Z,1005.66
2019-04-10T01:22:01.028Z,1005.66
2019-04-10T01:23:00.145Z,1005.67
2019-04-10T01:24:00.090Z,1005.65
2019-04-10T01:25:00.117Z,1005.67
2019-04-10T01:26:01.008Z,1005.67
2019-04-10T01:27:00.060Z,1005.66
2019-04-10T01:28:00.549Z,1005.70
2019-04-10T01:29:00.889Z,1005.67
2019-04-10T01:30:00.122Z,1005.68
2019-04-10T01:31:00.020Z,1005.62
2019-04-10T01:32:00.015Z,1005.68
2019-04-10T01:33:00.646Z,1005.68
2019-04-10T01:34:00.978Z,1005.69
2019-04-10T01:35:00.244Z,1005.67
2019-04-10T01:35:59.972Z,1005.69
2019-04-10T01:37:00.622Z,1005.68
2019-04-10T01:38:01.421Z,1005.69
2019-04-10T01:38:59.978Z,1005.68
2019-04-10T01:39:59.916Z,1005.69
2019-04-10T01:40:59.903Z,1005.73
2019-04-10T01:42:00.604Z,1005.72
2019-04-10T01:43:06.641Z,1005.73
2019-04-10T01:44:01.483Z,1005.71
2019-04-10T01:45:00.771Z,1005.70
2019-04-10T01:46:00.059Z,1005.68
2019-04-10T01:46:59.843Z,1005.71
2019-04-10T01:47:59.867Z,1005.70
2019-04-10T01:48:59.808Z,1005.68
2019-04-10T01:50:00.081Z,1005.69
2019-04-10T01:50:59.783Z,1005.68
2019-04-10T01:51:59.790Z,1005.72
2019-04-10T01:52:59.756Z,1005.71
2019-04-10T01:54:00.567Z,1005.74
2019-04-10T01:54:59.857Z,1005.75
2019-04-10T01:55:59.748Z,1005.70
2019-04-10T01:56:59.764Z,1005.73
2019-04-10T01:57:59.718Z,1005.71
2019-04-10T01:58:59.745Z,1005.74
2019-04-10T02:00:00.496Z,1005.72
2019-04-10T02:00:59.687Z,1005.72
2019-04-10T02:01:59.659Z,1005.70
2019-04-10T02:02:59.704Z,1005.66
2019-04-10T02:04:00.573Z,1005.69
2019-04-10T02:05:00.635Z,1005.68
2019-04-10T02:05:59.651Z,1005.67
2019-04-10T02:06:59.949Z,1005.68
2019-04-10T02:08:07.940Z,1005.68
2019-04-10T02:09:00.584Z,1005.69
2019-04-10T02:09:59.603Z,1005.71
2019-04-10T02:11:00.573Z,1005.77
2019-04-10T02:11:59.566Z,1005.79
2019-04-10T02:12:59.551Z,1005.74
2019-04-10T02:14:00.260Z,1005.74
2019-04-10T02:15:00.474Z,1005.76
2019-04-10T02:16:00.481Z,1005.71
2019-04-10T02:16:59.508Z,1005.74
2019-04-10T02:18:01.297Z,1005.71
2019-04-10T02:18:59.636Z,1005.76
2019-04-10T02:19:59.475Z,1005.74
2019-04-10T02:20:59.485Z,1005.76
2019-04-10T02:22:00.268Z,1005.74
2019-04-10T02:22:59.409Z,1005.74
2019-04-10T02:24:00.923Z,1005.76
2019-04-10T02:24:59.709Z,1005.76
2019-04-10T02:25:59.411Z,1005.76
2019-04-10T02:27:00.272Z,1005.71
2019-04-10T02:27:59.540Z,1005.76
2019-04-10T02:28:59.569Z,1005.69
2019-04-10T02:29:59.939Z,1005.67
2019-04-10T02:31:00.689Z,1005.72
2019-04-10T02:31:59.855Z,1005.71
2019-04-10T02:32:59.792Z,1005.67
2019-04-10T02:34:01.276Z,1005.70
2019-04-10T02:34:59.331Z,1005.69
2019-04-10T02:35:59.318Z,1005.70
2019-04-10T02:37:00.653Z,1005.69
2019-04-10T02:38:19.869Z,1005.71
2019-04-10T02:39:13.907Z,1005.68
2019-04-10T02:40:02.761Z,1005.69
2019-04-10T02:40:59.219Z,1005.65
2019-04-10T02:42:00.514Z,1005.69
2019-04-10T07:53:57.744Z,1007.82
2019-04-10T07:54:57.136Z,1007.81
2019-04-10T07:56:05.305Z,1007.79
2019-04-10T07:56:58.121Z,1007.73
2019-04-10T07:57:57.238Z,1007.81
2019-04-10T07:58:57.062Z,1007.76
2019-04-10T07:59:57.127Z,1007.78
2019-04-10T08:00:57.028Z,1007.82
2019-04-10T08:01:58.060Z,1007.79
2019-04-10T08:02:57.467Z,1007.80
2019-04-10T08:03:57.617Z,1007.80
2019-04-10T08:04:57.931Z,1007.85
2019-04-10T08:05:58.000Z,1007.83
2019-04-10T08:06:57.106Z,1007.83
2019-04-10T08:07:57.533Z,1007.80
2019-04-10T08:08:56.950Z,1007.82
2019-04-10T08:09:57.155Z,1007.89
2019-04-10T08:10:57.405Z,1007.86
2019-04-10T08:11:56.913Z,1007.85
2019-04-10T08:12:58.081Z,1007.85
2019-04-10T08:13:57.574Z,1007.88
2019-04-10T08:14:56.907Z,1007.86
2019-04-10T08:15:56.883Z,1007.85
2019-04-10T08:16:57.401Z,1007.90
2019-04-10T08:17:56.852Z,1007.85
2019-04-10T08:18:56.967Z,1007.83
2019-04-10T08:19:57.339Z,1007.83
2019-04-10T08:20:57.278Z,1007.84
2019-04-10T08:21:56.988Z,1007.86
2019-04-10T08:22:57.389Z,1007.86
2019-04-10T08:23:56.770Z,1007.90
2019-04-10T08:24:56.753Z,1007.88
2019-04-10T08:25:57.955Z,1007.89
2019-04-10T08:26:57.035Z,1007.89
2019-04-10T08:27:56.781Z,1007.85
2019-04-10T08:28:57.217Z,1007.83
2019-04-10T08:29:56.935Z,1007.87
2019-04-10T08:30:57.540Z,1007.90
2019-04-10T08:31:56.716Z,1007.88
2019-04-10T08:33:01.030Z,1007.90
2019-04-10T08:33:58.913Z,1007.93
2019-04-10T08:34:56.666Z,1007.92
2019-04-10T08:35:56.903Z,1007.88
2019-04-10T08:36:56.892Z,1007.92
2019-04-10T08:37:57.023Z,1007.90
2019-04-10T08:38:57.022Z,1007.97
2019-04-10T08:39:56.907Z,1007.87
2019-04-10T08:40:56.658Z,1007.86
2019-04-10T08:41:57.935Z,1007.88
2019-04-10T08:42:57.735Z,1007.84
2019-04-10T08:43:56.754Z,1007.84
2019-04-10T08:44:56.581Z,1007.86
2019-04-10T08:45:56.865Z,1007.89
2019-04-10T08:46:56.547Z,1007.89
2019-04-10T08:47:57.309Z,1007.91
2019-04-10T08:48:56.499Z,1007.90
2019-04-10T08:49:57.196Z,1007.90
2019-04-10T08:50:56.848Z,1007.93
2019-04-10T08:51:57.558Z,1007.94
2019-04-10T08:52:56.440Z,1007.92
2019-04-10T08:53:56.849Z,1007.92
2019-04-10T08:54:57.415Z,1007.93
2019-04-10T08:55:56.792Z,1007.94
2019-04-10T08:56:56.890Z,1007.91
2019-04-10T08:57:57.016Z,1007.90
2019-04-10T08:58:57.257Z,1007.89
2019-04-10T08:59:56.416Z,1007.91
2019-04-10T09:00:56.651Z,1007.91
2019-04-10T09:01:56.348Z,1007.89
2019-04-10T09:02:56.360Z,1007.89
2019-04-10T09:03:57.386Z,1007.86
2019-04-10T09:04:57.326Z,1007.92
2019-04-10T09:05:57.003Z,1007.90
2019-04-10T09:06:56.338Z,1007.92
2019-04-10T09:07:56.966Z,1007.86
2019-04-10T09:08:57.180Z,1007.86
2019-04-10T09:09:56.320Z,1007.86
2019-04-10T09:10:56.241Z,1007.85
2019-04-10T09:11:57.430Z,1007.81
2019-04-10T09:12:56.234Z,1007.81
2019-04-10T09:13:56.917Z,1007.80
2019-04-10T09:14:57.143Z,1007.79
2019-04-10T09:15:56.284Z,1007.82
2019-04-10T09:16:56.165Z,1007.82
2019-04-10T09:17:56.221Z,1007.86
2019-04-10T09:18:56.358Z,1007.79
2019-04-10T09:19:56.210Z,1007.81
2019-04-10T09:20:57.199Z,1007.79
2019-04-10T09:21:56.148Z,1007.77
2019-04-10T09:23:13.460Z,1007.76
2019-04-10T09:23:58.071Z,1007.76
2019-04-10T09:24:56.085Z,1007.80
2019-04-10T09:25:56.134Z,1007.79
2019-04-10T09:26:57.045Z,1007.79
2019-04-10T09:27:56.094Z,1007.80
2019-04-10T09:28:57.069Z,1007.80
2019-04-10T09:29:56.367Z,1007.83
2019-04-10T09:30:56.014Z,1007.82
2019-04-10T09:31:56.028Z,1007.84
2019-04-10T09:32:56.985Z,1007.80
2019-04-10T09:33:57.164Z,1007.76
2019-04-10T09:34:56.257Z,1007.77
2019-04-10T09:35:57.086Z,1007.72
2019-04-10T09:36:55.950Z,1007.72
2019-04-10T09:37:56.641Z,1007.77
2019-04-10T09:38:55.950Z,1007.81
2019-04-10T09:39:56.529Z,1007.67
2019-04-10T09:40:55.904Z,1007.67
2019-04-10T09:41:56.452Z,1007.74
2019-04-10T09:42:55.891Z,1007.75
2019-04-10T09:43:56.243Z,1007.75
2019-04-10T09:44:56.928Z,1007.78
2019-04-10T09:45:55.904Z,1007.76
2019-04-10T09:46:55.840Z,1007.73
2019-04-10T09:47:55.946Z,1007.69
2019-04-10T09:48:56.671Z,1007.71
2019-04-10T09:49:55.928Z,1007.72
2019-04-10T09:50:56.153Z,1007.74
2019-04-10T09:51:56.815Z,1007.73
2019-04-10T09:52:56.592Z,1007.75
2019-04-10T09:53:57.297Z,1007.72
2019-04-10T09:54:55.836Z,1007.70
2019-04-10T09:55:57.218Z,1007.72
2019-04-10T09:56:59.156Z,1007.75
2019-04-10T09:57:55.714Z,1007.76
2019-04-10T09:58:56.729Z,1007.74
2019-04-10T09:59:56.792Z,1007.75
2019-04-10T10:00:56.559Z,1007.72
2019-04-10T10:01:56.353Z,1007.68
2019-04-10T10:02:56.287Z,1007.71
2019-04-10T10:03:56.966Z,1007.72
2019-04-10T10:04:57.799Z,1007.70
2019-04-10T10:05:55.619Z,1007.67
2019-04-10T10:06:55.758Z,1007.61
2019-04-10T10:07:56.149Z,1007.66
2019-04-10T10:08:56.461Z,1007.65
2019-04-10T10:09:58.946Z,1007.63
2019-04-10T10:10:55.655Z,1007.66
2019-04-10T10:11:55.617Z,1007.68
2019-04-10T10:12:55.586Z,1007.71
2019-04-10T10:13:56.396Z,1007.67
2019-04-10T10:14:56.299Z,1007.61
2019-04-10T10:15:56.683Z,1007.62
2019-04-10T10:16:55.968Z,1007.64
2019-04-10T10:17:55.479Z,1007.65
2019-04-10T10:18:55.515Z,1007.67
2019-04-10T10:19:55.481Z,1007.67
2019-04-10T10:20:56.386Z,1007.72
2019-04-10T10:21:55.455Z,1007.72
2019-04-10T10:22:55.769Z,1007.69
2019-04-10T10:23:55.519Z,1007.77
2019-04-10T10:24:56.786Z,1007.67
2019-04-10T10:25:55.481Z,1007.67
2019-04-10T10:26:55.654Z,1007.68
2019-04-10T10:27:56.502Z,1007.66
2019-04-10T10:28:56.419Z,1007.66
2019-04-10T10:29:56.097Z,1007.64
2019-04-10T10:30:55.733Z,1007.65
2019-04-10T10:31:55.318Z,1007.63
2019-04-10T10:32:55.356Z,1007.64
2019-04-10T10:33:56.453Z,1007.64
2019-04-10T10:34:55.304Z,1007.72
2019-04-10T10:35:55.627Z,1007.74
2019-04-10T10:36:55.907Z,1007.75
2019-04-10T10:37:56.850Z,1007.73
2019-04-10T10:39:05.292Z,1007.78
2019-04-10T10:39:56.516Z,1007.74
2019-04-10T10:40:55.264Z,1007.71
2019-04-10T10:41:56.432Z,1007.72
2019-04-10T10:42:56.128Z,1007.72
2019-04-10T10:43:56.433Z,1007.71
2019-04-10T10:44:56.461Z,1007.67
2019-04-10T10:45:55.794Z,1007.68
2019-04-10T10:46:55.812Z,1007.69
2019-04-10T10:47:56.763Z,1007.69
2019-04-10T10:48:55.815Z,1007.69
2019-04-10T10:49:55.131Z,1007.74
2019-04-10T10:50:56.109Z,1007.70
2019-04-10T10:51:55.239Z,1007.70
2019-04-10T10:52:55.541Z,1007.69
2019-04-10T10:53:55.100Z,1007.73
2019-04-10T10:54:55.062Z,1007.69
2019-04-10T10:55:56.034Z,1007.75
2019-04-10T10:56:55.101Z,1007.75
2019-04-10T10:57:55.433Z,1007.63
2019-04-10T10:58:57.792Z,1007.68
2019-04-10T10:59:55.006Z,1007.66
2019-04-10T11:00:55.721Z,1007.63
2019-04-10T11:01:55.963Z,1007.67
2019-04-10T11:02:55.995Z,1007.70
2019-04-10T11:03:54.964Z,1007.61
2019-04-10T11:04:55.806Z,1007.62
2019-04-10T11:05:54.968Z,1007.61
2019-04-10T11:07:00.008Z,1007.65
2019-04-10T11:07:55.979Z,1007.63
2019-04-10T11:08:55.547Z,1007.62
2019-04-10T11:09:54.906Z,1007.68
2019-04-10T11:10:56.323Z,1007.61
2019-04-10T11:11:55.977Z,1007.63
2019-04-10T11:12:55.271Z,1007.62
2019-04-10T11:13:55.133Z,1007.61
2019-04-10T11:14:56.186Z,1007.62
2019-04-10T11:15:54.824Z,1007.59
2019-04-10T11:16:56.249Z,1007.63
2019-04-10T11:17:54.847Z,1007.60
2019-04-10T11:18:55.086Z,1007.60
2019-04-10T11:19:55.891Z,1007.65
2019-04-10T11:21:00.717Z,1007.71
2019-04-10T11:21:56.906Z,1007.73
2019-04-10T11:22:55.821Z,1007.66
2019-04-10T11:23:55.596Z,1007.73
2019-04-10T11:24:55.727Z,1007.67
2019-04-10T11:25:55.866Z,1007.70
2019-04-10T11:26:54.785Z,1007.66
2019-04-10T11:27:56.315Z,1007.70
2019-04-10T11:28:55.694Z,1007.71
2019-04-10T11:29:55.057Z,1007.72
2019-04-10T11:30:54.670Z,1007.71
2019-04-10T11:31:55.593Z,1007.69
2019-04-10T11:32:55.656Z,1007.63
2019-04-10T11:33:56.346Z,1007.68
2019-04-10T11:34:55.601Z,1007.63
2019-04-10T11:35:55.237Z,1007.64
2019-04-10T11:37:12.950Z,1007.68
2019-04-10T11:37:59.019Z,1007.65
2019-04-10T11:39:06.540Z,1007.67
2019-04-10T11:39:56.243Z,1007.68
2019-04-10T11:40:57.628Z,1007.69
2019-04-10T11:41:55.260Z,1007.64
2019-04-10T11:42:55.600Z,1007.70
2019-04-10T11:43:56.059Z,1007.72
2019-04-10T11:44:55.411Z,1007.70
2019-04-10T11:45:57.599Z,1007.67
2019-04-10T11:46:56.548Z,1007.66
2019-04-10T11:47:54.457Z,1007.63
2019-04-10T11:48:55.543Z,1007.70
2019-04-10T11:49:57.254Z,1007.67
2019-04-10T11:50:59.012Z,1007.68
2019-04-10T11:51:59.448Z,1007.70
2019-04-10T11:52:56.740Z,1007.70
2019-04-10T11:53:56.428Z,1007.70
2019-04-10T11:55:57.016Z,1007.73
2019-04-10T11:56:58.329Z,1007.72
2019-04-10T11:57:55.375Z,1007.69
2019-04-10T11:58:56.504Z,1007.68
2019-04-10T11:59:54.566Z,1007.68
2019-04-10T12:02:00.162Z,1007.69
2019-04-10T12:02:58.738Z,1007.71
2019-04-10T12:03:56.785Z,1007.69
2019-04-10T12:04:59.229Z,1007.70
2019-04-10T12:05:57.213Z,1007.72
2019-04-10T12:06:57.053Z,1007.67
2019-04-10T12:08:22.172Z,1007.70
2019-04-10T12:09:19.338Z,1007.70
2019-04-10T12:11:55.374Z,1007.73
2019-04-10T12:12:55.572Z,1007.75
2019-04-10T12:13:54.572Z,1007.72
2019-04-10T12:14:54.286Z,1007.75
2019-04-10T12:15:54.141Z,1007.73
2019-04-10T12:16:54.158Z,1007.72
2019-04-10T12:17:55.588Z,1007.72
2019-04-10T12:18:55.864Z,1007.71
2019-04-10T12:19:54.373Z,1007.71
2019-04-10T12:20:54.089Z,1007.72
2019-04-10T12:21:54.177Z,1007.71
2019-04-10T12:22:54.586Z,1007.71
2019-04-10T12:23:54.042Z,1007.71
2019-04-10T12:24:54.355Z,1007.72
2019-04-10T12:25:54.186Z,1007.70
2019-04-10T12:26:54.113Z,1007.70
2019-04-10T12:27:54.021Z,1007.71
2019-04-10T12:28:54.046Z,1007.73
2019-04-10T12:29:55.113Z,1007.69
2019-04-10T12:30:53.978Z,1007.75
2019-04-10T12:31:54.551Z,1007.76
2019-04-10T12:32:54.823Z,1007.81
2019-04-10T12:33:54.873Z,1007.80
2019-04-10T12:34:53.918Z,1007.76
2019-04-10T12:35:54.106Z,1007.75
2019-04-10T12:36:55.135Z,1007.75
2019-04-10T12:38:02.242Z,1007.75
2019-04-10T12:38:56.062Z,1007.73
2019-04-10T12:39:55.104Z,1007.74
2019-04-10T12:40:55.041Z,1007.72
2019-04-10T12:41:53.860Z,1007.68
2019-04-10T12:42:54.618Z,1007.72
2019-04-10T12:43:53.819Z,1007.69
2019-04-10T12:44:53.801Z,1007.75
2019-04-10T12:45:54.772Z,1007.73
2019-04-10T12:46:53.780Z,1007.71
2019-04-10T12:47:54.386Z,1007.72
2019-04-10T12:48:54.927Z,1007.75
2019-04-10T12:49:54.033Z,1007.72
2019-04-10T12:50:53.754Z,1007.70
2019-04-10T12:51:54.113Z,1007.66
2019-04-10T12:52:54.734Z,1007.72
2019-04-10T12:53:54.060Z,1007.69
2019-04-10T12:54:53.695Z,1007.68
2019-04-10T12:55:53.679Z,1007.65
2019-04-10T12:56:54.658Z,1007.72
2019-04-10T12:58:05.425Z,1007.74
2019-04-10T12:58:55.129Z,1007.70
2019-04-10T12:59:59.848Z,1007.73
2019-04-10T13:00:54.636Z,1007.69
2019-04-10T13:01:54.096Z,1007.68
2019-04-10T13:02:54.553Z,1007.69
2019-04-10T13:03:53.720Z,1007.68
2019-04-10T13:04:54.613Z,1007.65
2019-04-10T13:05:53.676Z,1007.63
2019-04-10T13:06:53.565Z,1007.65
2019-04-10T13:07:54.020Z,1007.63
2019-04-10T13:09:03.997Z,1007.57
2019-04-10T13:09:54.555Z,1007.60
2019-04-10T13:10:54.034Z,1007.62
2019-04-10T13:11:53.493Z,1007.64
2019-04-10T13:12:53.577Z,1007.57
2019-04-10T13:13:54.578Z,1007.60
2019-04-10T13:14:53.499Z,1007.57
2019-04-10T13:15:54.091Z,1007.55
2019-04-10T13:16:53.458Z,1007.49
2019-04-10T13:17:53.430Z,1007.55
2019-04-10T13:18:54.474Z,1007.52
2019-04-10T13:19:53.482Z,1007.57
2019-04-10T13:20:53.721Z,1007.54
2019-04-10T13:21:53.680Z,1007.55
2019-04-10T13:22:53.415Z,1007.55
2019-04-10T13:23:53.369Z,1007.54
2019-04-10T13:24:54.138Z,1007.52
2019-04-10T13:25:59.159Z,1007.53
2019-04-10T13:26:55.153Z,1007.55
2019-04-10T13:27:53.310Z,1007.55
2019-04-10T13:28:53.919Z,1007.57
2019-04-10T13:29:54.363Z,1007.54
2019-04-10T13:30:55.213Z,1007.57
2019-04-10T13:31:53.680Z,1007.55
2019-04-10T13:32:53.262Z,1007.53
2019-04-10T13:33:53.243Z,1007.55
2019-04-10T13:34:53.418Z,1007.52
2019-04-10T13:35:53.376Z,1007.57
2019-04-10T13:36:53.530Z,1007.52
2019-04-10T13:37:53.207Z,1007.52
2019-04-10T13:38:53.185Z,1007.52
2019-04-10T13:39:53.178Z,1007.53
2019-04-10T13:40:54.273Z,1007.47
2019-04-10T13:41:53.147Z,1007.48
2019-04-10T13:42:53.696Z,1007.46
2019-04-10T13:43:53.987Z,1007.50
2019-04-10T13:44:53.119Z,1007.48
2019-04-10T13:45:54.157Z,1007.52
2019-04-10T13:46:53.212Z,1007.43
2019-04-10T13:47:53.085Z,1007.47
2019-04-10T13:48:53.511Z,1007.47
2019-04-10T13:49:53.074Z,1007.49
2019-04-10T13:50:53.050Z,1007.52
2019-04-10T13:51:53.973Z,1007.50
2019-04-10T13:52:54.035Z,1007.52
2019-04-10T13:53:53.011Z,1007.50
2019-04-10T13:54:53.011Z,1007.52
2019-04-10T13:55:52.990Z,1007.53
2019-04-10T13:56:53.167Z,1007.52
2019-04-10T13:57:53.099Z,1007.58
2019-04-10T13:58:53.050Z,1007.48
2019-04-10T13:59:53.287Z,1007.52
2019-04-10T14:00:53.609Z,1007.54
2019-04-10T14:01:52.960Z,1007.52
2019-04-10T14:02:54.051Z,1007.51
2019-04-10T14:03:52.939Z,1007.51
2019-04-10T14:04:53.444Z,1007.50
2019-04-10T14:05:53.086Z,1007.45
2019-04-10T14:06:53.605Z,1007.47
2019-04-10T14:07:53.459Z,1007.47
2019-04-10T14:09:07.889Z,1007.47
2019-04-10T14:09:54.448Z,1007.49
2019-04-10T14:10:52.973Z,1007.53
2019-04-10T14:11:53.468Z,1007.41
2019-04-10T14:12:53.494Z,1007.44
2019-04-10T14:13:53.975Z,1007.50
2019-04-10T14:14:53.119Z,1007.46
2019-04-10T14:15:52.776Z,1007.46
2019-04-10T14:16:53.036Z,1007.48
2019-04-10T14:17:52.753Z,1007.49
2019-04-10T14:18:52.950Z,1007.48
2019-04-10T14:19:52.732Z,1007.45
2019-04-10T14:20:53.436Z,1007.44
2019-04-10T14:21:53.480Z,1007.48
2019-04-10T14:22:53.651Z,1007.50
2019-04-10T14:23:53.601Z,1007.49
2019-04-10T14:24:53.603Z,1007.54
2019-04-10T14:25:52.824Z,1007.50
2019-04-10T14:26:54.941Z,1007.51
2019-04-10T14:27:52.618Z,1007.50
2019-04-10T14:28:53.547Z,1007.57
2019-04-10T14:29:52.616Z,1007.61
2019-04-10T14:30:53.707Z,1007.58
2019-04-10T14:31:53.185Z,1007.61
2019-04-10T14:32:52.578Z,1007.58
2019-04-10T14:33:53.224Z,1007.61
2019-04-10T14:34:52.691Z,1007.60
2019-04-10T14:35:53.591Z,1007.58
2019-04-10T14:36:52.756Z,1007.54
2019-04-10T14:37:52.507Z,1007.61
2019-04-10T14:38:52.559Z,1007.58
2019-04-10T14:39:52.569Z,1007.63
2019-04-10T14:40:53.473Z,1007.58
2019-04-10T14:41:52.468Z,1007.62
2019-04-10T14:42:53.566Z,1007.66
2019-04-10T14:43:53.578Z,1007.67
2019-04-10T14:44:53.094Z,1007.63
2019-04-10T14:45:52.447Z,1007.66
2019-04-10T14:46:52.405Z,1007.67
2019-04-10T14:47:52.404Z,1007.72
2019-04-10T14:48:52.382Z,1007.71
2019-04-10T14:49:54.058Z,1007.70
2019-04-10T14:50:52.387Z,1007.68
2019-04-10T14:51:52.653Z,1007.68
2019-04-10T14:52:52.345Z,1007.69
2019-04-10T14:53:52.326Z,1007.72
2019-04-10T14:54:52.316Z,1007.73
2019-04-10T14:55:53.492Z,1007.70
2019-04-10T14:56:52.583Z,1007.72
2019-04-10T14:57:53.111Z,1007.71
2019-04-10T14:58:52.943Z,1007.72
2019-04-10T14:59:52.567Z,1007.71
2019-04-10T15:00:52.987Z,1007.72
2019-04-10T15:01:52.606Z,1007.76
2019-04-10T15:02:52.259Z,1007.76
2019-04-10T15:03:52.965Z,1007.79
2019-04-10T15:04:53.205Z,1007.74
2019-04-10T15:05:54.464Z,1007.72
2019-04-10T15:06:53.307Z,1007.72
2019-04-10T15:07:53.219Z,1007.74
2019-04-10T15:08:52.294Z,1007.73
2019-04-10T15:09:52.151Z,1007.75
2019-04-10T15:10:52.143Z,1007.73
2019-04-10T15:11:53.113Z,1007.74
2019-04-10T15:12:53.308Z,1007.75
2019-04-10T15:13:52.116Z,1007.74
2019-04-10T15:14:52.130Z,1007.76
2019-04-10T15:15:52.497Z,1007.79
2019-04-10T15:16:57.415Z,1007.77
2019-04-10T15:17:54.094Z,1007.83
2019-04-10T15:18:52.121Z,1007.84
2019-04-10T15:19:53.591Z,1007.84
2019-04-10T15:20:52.306Z,1007.85
2019-04-10T15:21:53.693Z,1007.86
2019-04-10T15:22:52.700Z,1007.84
2019-04-10T15:23:52.977Z,1007.90
2019-04-10T15:24:51.992Z,1007.82
2019-04-10T15:25:51.960Z,1007.86
2019-04-10T15:26:52.875Z,1007.89
2019-04-10T15:27:51.982Z,1007.85
2019-04-10T15:28:52.035Z,1007.87
2019-04-10T15:29:52.610Z,1007.87
2019-04-10T15:30:53.000Z,1007.77
2019-04-10T15:31:52.281Z,1007.84
2019-04-10T15:32:51.945Z,1007.87
2019-04-10T15:33:51.950Z,1007.82
2019-04-10T15:34:51.855Z,1007.83
2019-04-10T15:35:51.908Z,1007.85
2019-04-10T15:36:52.870Z,1007.82
2019-04-10T15:37:51.856Z,1007.85
2019-04-10T15:38:52.743Z,1007.95
2019-04-10T15:39:51.950Z,1007.87
2019-04-10T15:40:52.581Z,1007.91
2019-04-10T15:41:51.898Z,1007.84
2019-04-10T15:42:52.350Z,1007.94
2019-04-10T15:43:51.772Z,1007.97
2019-04-10T15:44:51.748Z,1007.98
2019-04-10T15:45:52.528Z,1007.96
2019-04-10T15:46:53.309Z,1007.96
2019-04-10T15:47:54.514Z,1008.01
2019-04-10T15:48:52.941Z,1008.00
2019-04-10T15:49:51.764Z,1007.97
2019-04-10T15:50:51.850Z,1008.00
2019-04-10T15:51:51.673Z,1008.10
2019-04-10T15:52:51.655Z,1008.08
2019-04-10T15:53:51.648Z,1008.10
2019-04-10T15:54:53.324Z,1008.07
2019-04-10T15:55:51.760Z,1008.07
2019-04-10T15:56:52.098Z,1008.08
2019-04-10T15:57:56.043Z,1008.03
2019-04-10T15:58:52.593Z,1008.11
2019-04-10T15:59:52.514Z,1008.09
2019-04-10T16:00:51.767Z,1008.09
2019-04-10T16:01:51.556Z,1008.11
2019-04-10T16:02:51.588Z,1008.10
2019-04-10T16:03:52.765Z,1008.14
2019-04-10T16:04:51.550Z,1008.13
2019-04-10T16:05:51.545Z,1008.13
2019-04-10T16:06:51.619Z,1008.14
2019-04-10T16:07:51.504Z,1008.17
2019-04-10T16:08:52.397Z,1008.08
2019-04-10T16:09:53.676Z,1008.12
2019-04-10T16:10:51.454Z,1008.10
2019-04-10T16:11:52.278Z,1008.10
2019-04-10T16:12:52.014Z,1008.22
2019-04-10T16:13:52.599Z,1008.19
2019-04-10T16:14:52.436Z,1008.15
2019-04-10T16:15:52.557Z,1008.16
2019-04-10T16:16:51.443Z,1008.20
2019-04-10T16:17:52.591Z,1008.22
2019-04-10T16:18:51.389Z,1008.22
2019-04-10T16:19:51.419Z,1008.27
2019-04-10T16:20:51.406Z,1008.25
2019-04-10T16:21:52.196Z,1008.18
2019-04-10T16:22:51.341Z,1008.23
2019-04-10T16:23:51.775Z,1008.24
2019-04-10T16:24:51.302Z,1008.24
2019-04-10T16:25:52.391Z,1008.29
2019-04-10T16:26:51.752Z,1008.31
2019-04-10T16:27:51.262Z,1008.29
2019-04-10T16:28:51.596Z,1008.27
2019-04-10T16:29:51.265Z,1008.31
2019-04-10T16:30:51.270Z,1008.27
2019-04-10T16:31:53.081Z,1008.32
2019-04-10T16:32:52.284Z,1008.29
2019-04-10T16:33:51.189Z,1008.41
2019-04-10T16:34:51.263Z,1008.39
2019-04-10T16:35:51.169Z,1008.44
2019-04-10T16:36:52.127Z,1008.39
2019-04-10T16:37:51.553Z,1008.39
2019-04-10T16:38:51.294Z,1008.50
2019-04-10T16:39:58.454Z,1008.34
2019-04-10T16:40:52.250Z,1008.46
2019-04-10T16:41:52.317Z,1008.43
2019-04-10T16:42:51.131Z,1008.46
2019-04-10T16:43:51.089Z,1008.50
2019-04-10T16:44:51.300Z,1008.48
2019-04-10T16:45:51.058Z,1008.56
2019-04-10T16:46:51.046Z,1008.53
2019-04-10T16:47:51.065Z,1008.56
2019-04-10T16:48:51.064Z,1008.53
2019-04-10T16:49:51.017Z,1008.54
2019-04-10T16:50:51.942Z,1008.60
2019-04-10T16:51:51.003Z,1008.64
2019-04-10T16:52:51.448Z,1008.61
2019-04-10T16:53:51.790Z,1008.61
2019-04-10T16:54:51.422Z,1008.67
2019-04-10T16:55:51.299Z,1008.69
2019-04-10T16:56:50.980Z,1008.62
2019-04-10T16:57:51.402Z,1008.69
2019-04-10T16:58:52.071Z,1008.68
2019-04-10T16:59:50.960Z,1008.64
2019-04-10T17:00:50.907Z,1008.72
2019-04-10T17:01:51.149Z,1008.68
2019-04-10T17:02:50.870Z,1008.71
2019-04-10T17:03:50.860Z,1008.67
2019-04-10T17:04:50.877Z,1008.69
2019-04-10T17:05:50.834Z,1008.65
2019-04-10T17:06:50.824Z,1008.74
2019-04-10T17:07:51.647Z,1008.76
2019-04-10T17:08:50.859Z,1008.75
2019-04-10T17:09:51.492Z,1008.75
2019-04-10T17:10:50.775Z,1008.78
2019-04-10T17:11:51.417Z,1008.77
2019-04-10T17:12:51.878Z,1008.81
2019-04-10T17:13:50.940Z,1008.75
2019-04-10T17:14:51.277Z,1008.78
2019-04-10T17:15:51.766Z,1008.77
2019-04-10T17:16:50.726Z,1008.81
2019-04-10T17:17:50.743Z,1008.78
2019-04-10T17:18:51.688Z,1008.86
2019-04-10T17:19:55.385Z,1008.91